sensor_id;sensor_type;location;lat;lon;timestamp;pressure;altitude;pressure_sealevel;temperature;humidity
64602;BME280;68371;42.630;23.192;2023-03-05T00:00:08;91848.72;;;6.06;95.18
64602;BME280;68371;42.630;23.192;2023-03-05T00:02:35;91844.28;;;6.07;95.28
64602;BME280;68371;42.630;23.192;2023-03-05T00:05:02;91834.94;;;6.06;95.52
64602;BME280;68371;42.630;23.192;2023-03-05T00:07:29;91836.78;;;6.05;95.86
64602;BME280;68371;42.630;23.192;2023-03-05T00:09:57;91835.59;;;6.03;95.58
64602;BME280;68371;42.630;23.192;2023-03-05T00:12:26;91832.31;;;6.06;95.43
64602;BME280;68371;42.630;23.192;2023-03-05T00:14:52;91825.03;;;5.99;95.93
64602;BME280;68371;42.630;23.192;2023-03-05T00:17:19;91831.00;;;5.99;96.00
64602;BME280;68371;42.630;23.192;2023-03-05T00:19:46;91829.34;;;5.95;96.31
64602;BME280;68371;42.630;23.192;2023-03-05T00:22:14;91829.06;;;5.88;96.51
64602;BME280;68371;42.630;23.192;2023-03-05T00:24:41;91807.09;;;5.76;95.57
64602;BME280;68371;42.630;23.192;2023-03-05T00:27:07;91825.56;;;5.83;96.13
64602;BME280;68371;42.630;23.192;2023-03-05T00:29:35;91823.09;;;5.87;96.40
64602;BME280;68371;42.630;23.192;2023-03-05T00:32:02;91812.16;;;5.73;96.76
64602;BME280;68371;42.630;23.192;2023-03-05T00:34:29;91817.44;;;5.85;96.81
64602;BME280;68371;42.630;23.192;2023-03-05T00:36:56;91814.38;;;5.83;96.37
64602;BME280;68371;42.630;23.192;2023-03-05T00:39:22;91808.72;;;5.81;96.05
64602;BME280;68371;42.630;23.192;2023-03-05T00:41:50;91821.97;;;5.97;95.79
64602;BME280;68371;42.630;23.192;2023-03-05T00:44:17;91808.09;;;5.84;96.15
64602;BME280;68371;42.630;23.192;2023-03-05T00:47:20;91815.41;;;5.91;96.46
64602;BME280;68371;42.630;23.192;2023-03-05T00:49:47;91812.28;;;5.97;95.49
64602;BME280;68371;42.630;23.192;2023-03-05T00:52:14;91809.06;;;6.00;95.39
64602;BME280;68371;42.630;23.192;2023-03-05T00:54:40;91804.53;;;5.89;95.73
64602;BME280;68371;42.630;23.192;2023-03-05T00:57:07;91803.50;;;5.81;96.65
64602;BME280;68371;42.630;23.192;2023-03-05T00:59:34;91802.75;;;5.80;97.17
64602;BME280;68371;42.630;23.192;2023-03-05T01:02:01;91774.78;;;5.69;96.74
64602;BME280;68371;42.630;23.192;2023-03-05T01:04:30;91793.75;;;5.78;96.89
64602;BME280;68371;42.630;23.192;2023-03-05T01:06:58;91785.09;;;5.65;97.64
64602;BME280;68371;42.630;23.192;2023-03-05T01:09:25;91788.25;;;5.71;96.92
64602;BME280;68371;42.630;23.192;2023-03-05T01:11:53;91791.50;;;5.68;96.86
64602;BME280;68371;42.630;23.192;2023-03-05T01:14:20;91788.97;;;5.59;97.26
64602;BME280;68371;42.630;23.192;2023-03-05T01:16:47;91778.41;;;5.55;97.72
64602;BME280;68371;42.630;23.192;2023-03-05T01:19:15;91786.63;;;5.66;97.76
64602;BME280;68371;42.630;23.192;2023-03-05T01:21:43;91787.38;;;5.67;97.63
64602;BME280;68371;42.630;23.192;2023-03-05T01:24:10;91782.78;;;5.63;97.64
64602;BME280;68371;42.630;23.192;2023-03-05T01:26:36;91781.66;;;5.73;97.04
64602;BME280;68371;42.630;23.192;2023-03-05T01:29:03;91773.59;;;5.66;95.94
64602;BME280;68371;42.630;23.192;2023-03-05T01:31:30;91781.34;;;5.75;96.34
64602;BME280;68371;42.630;23.192;2023-03-05T01:33:56;91783.13;;;5.62;97.34
64602;BME280;68371;42.630;23.192;2023-03-05T01:36:25;91780.63;;;5.66;97.22
64602;BME280;68371;42.630;23.192;2023-03-05T01:38:53;91777.72;;;5.67;97.38
64602;BME280;68371;42.630;23.192;2023-03-05T01:41:20;91737.25;;;5.49;97.54
64602;BME280;68371;42.630;23.192;2023-03-05T01:43:47;91765.13;;;5.69;97.11
64602;BME280;68371;42.630;23.192;2023-03-05T01:46:30;91767.84;;;5.73;97.14
64602;BME280;68371;42.630;23.192;2023-03-05T01:49:07;91769.25;;;5.70;96.84
64602;BME280;68371;42.630;23.192;2023-03-05T01:51:38;91772.94;;;5.69;96.75
64602;BME280;68371;42.630;23.192;2023-03-05T01:54:09;91769.72;;;5.72;96.93
64602;BME280;68371;42.630;23.192;2023-03-05T01:56:38;91780.06;;;5.81;96.71
64602;BME280;68371;42.630;23.192;2023-03-05T01:59:05;91772.22;;;5.81;96.57
64602;BME280;68371;42.630;23.192;2023-03-05T02:01:37;91771.47;;;5.80;96.53
64602;BME280;68371;42.630;23.192;2023-03-05T02:04:06;91764.72;;;5.79;95.99
64602;BME280;68371;42.630;23.192;2023-03-05T02:06:33;91774.31;;;5.88;95.52
64602;BME280;68371;42.630;23.192;2023-03-05T02:09:00;91776.03;;;5.83;95.80
64602;BME280;68371;42.630;23.192;2023-03-05T02:11:28;91752.34;;;5.76;95.82
64602;BME280;68371;42.630;23.192;2023-03-05T02:13:57;91769.00;;;5.84;96.14
64602;BME280;68371;42.630;23.192;2023-03-05T02:16:24;91767.91;;;5.85;95.67
64602;BME280;68371;42.630;23.192;2023-03-05T02:18:51;91703.00;;;5.38;96.11
64602;BME280;68371;42.630;23.192;2023-03-05T02:21:27;91772.50;;;5.88;95.94
64602;BME280;68371;42.630;23.192;2023-03-05T02:23:54;91772.81;;;5.87;95.65
64602;BME280;68371;42.630;23.192;2023-03-05T02:26:21;91772.53;;;5.79;95.96
64602;BME280;68371;42.630;23.192;2023-03-05T02:28:50;91762.50;;;5.69;95.78
64602;BME280;68371;42.630;23.192;2023-03-05T02:31:20;91774.91;;;5.72;95.88
64602;BME280;68371;42.630;23.192;2023-03-05T02:33:48;91772.31;;;5.72;95.68
64602;BME280;68371;42.630;23.192;2023-03-05T02:36:16;91771.88;;;5.70;95.51
64602;BME280;68371;42.630;23.192;2023-03-05T02:38:45;91779.03;;;5.73;95.64
64602;BME280;68371;42.630;23.192;2023-03-05T02:41:12;91773.81;;;5.73;95.69
64602;BME280;68371;42.630;23.192;2023-03-05T02:43:39;91764.88;;;5.62;95.80
64602;BME280;68371;42.630;23.192;2023-03-05T02:46:06;91778.59;;;5.71;95.91
64602;BME280;68371;42.630;23.192;2023-03-05T02:48:33;91773.16;;;5.64;96.43
64602;BME280;68371;42.630;23.192;2023-03-05T02:51:02;91777.41;;;5.69;96.19
64602;BME280;68371;42.630;23.192;2023-03-05T02:53:30;91754.66;;;5.57;96.27
64602;BME280;68371;42.630;23.192;2023-03-05T02:55:59;91779.16;;;5.77;96.80
64602;BME280;68371;42.630;23.192;2023-03-05T02:58:26;91773.63;;;5.78;96.36
64602;BME280;68371;42.630;23.192;2023-03-05T03:00:53;91771.13;;;5.70;96.85
64602;BME280;68371;42.630;23.192;2023-03-05T03:03:19;91782.28;;;5.70;96.51
64602;BME280;68371;42.630;23.192;2023-03-05T03:05:46;91774.91;;;5.72;96.26
64602;BME280;68371;42.630;23.192;2023-03-05T03:08:13;91780.56;;;5.74;96.23
64602;BME280;68371;42.630;23.192;2023-03-05T03:10:40;91773.38;;;5.71;96.12
64602;BME280;68371;42.630;23.192;2023-03-05T03:13:08;91777.66;;;5.76;96.01
64602;BME280;68371;42.630;23.192;2023-03-05T03:15:35;91778.09;;;5.78;96.18
64602;BME280;68371;42.630;23.192;2023-03-05T03:18:03;91768.31;;;5.75;95.82
64602;BME280;68371;42.630;23.192;2023-03-05T03:20:30;91772.06;;;5.65;96.04
64602;BME280;68371;42.630;23.192;2023-03-05T03:22:59;91774.47;;;5.70;96.01
64602;BME280;68371;42.630;23.192;2023-03-05T03:25:26;91777.72;;;5.67;95.99
64602;BME280;68371;42.630;23.192;2023-03-05T03:27:53;91779.25;;;5.68;95.16
64602;BME280;68371;42.630;23.192;2023-03-05T03:30:21;91782.16;;;5.67;94.95
64602;BME280;68371;42.630;23.192;2023-03-05T03:32:49;91773.19;;;5.55;95.19
64602;BME280;68371;42.630;23.192;2023-03-05T03:35:16;91782.16;;;5.67;95.39
64602;BME280;68371;42.630;23.192;2023-03-05T03:37:43;91777.56;;;5.63;95.22
64602;BME280;68371;42.630;23.192;2023-03-05T03:40:10;91776.19;;;5.66;96.11
64602;BME280;68371;42.630;23.192;2023-03-05T03:42:37;91780.53;;;5.62;96.70
64602;BME280;68371;42.630;23.192;2023-03-05T03:45:05;91772.13;;;5.56;96.30
64602;BME280;68371;42.630;23.192;2023-03-05T03:47:34;91781.28;;;5.62;96.65
64602;BME280;68371;42.630;23.192;2023-03-05T03:50:03;91765.91;;;5.49;97.02
64602;BME280;68371;42.630;23.192;2023-03-05T03:52:29;91788.47;;;5.45;97.24
64602;BME280;68371;42.630;23.192;2023-03-05T03:54:56;91785.84;;;5.45;97.42
64602;BME280;68371;42.630;23.192;2023-03-05T03:57:26;91784.34;;;5.44;96.80
64602;BME280;68371;42.630;23.192;2023-03-05T03:59:53;91783.13;;;5.41;96.00
64602;BME280;68371;42.630;23.192;2023-03-05T04:02:20;91781.47;;;5.36;94.71
64602;BME280;68371;42.630;23.192;2023-03-05T04:04:48;91772.25;;;5.39;92.08
64602;BME280;68371;42.630;23.192;2023-03-05T04:07:15;91787.88;;;5.39;89.75
64602;BME280;68371;42.630;23.192;2023-03-05T04:09:42;91785.59;;;5.37;88.21
64602;BME280;68371;42.630;23.192;2023-03-05T04:12:09;91788.31;;;5.41;88.83
64602;BME280;68371;42.630;23.192;2023-03-05T04:14:36;91785.91;;;5.36;87.40
64602;BME280;68371;42.630;23.192;2023-03-05T04:17:03;91785.78;;;5.32;87.41
64602;BME280;68371;42.630;23.192;2023-03-05T04:19:29;91787.56;;;5.19;86.71
64602;BME280;68371;42.630;23.192;2023-03-05T04:21:58;91786.78;;;5.19;86.17
64602;BME280;68371;42.630;23.192;2023-03-05T04:24:25;91778.63;;;4.99;84.95
64602;BME280;68371;42.630;23.192;2023-03-05T04:26:51;91794.31;;;4.91;86.37
64602;BME280;68371;42.630;23.192;2023-03-05T04:29:19;91792.00;;;4.89;86.43
64602;BME280;68371;42.630;23.192;2023-03-05T04:31:45;91785.84;;;4.94;86.51
64602;BME280;68371;42.630;23.192;2023-03-05T04:34:12;91785.41;;;4.92;87.47
64602;BME280;68371;42.630;23.192;2023-03-05T04:36:39;91778.25;;;4.80;86.63
64602;BME280;68371;42.630;23.192;2023-03-05T04:39:07;91790.81;;;4.87;87.99
64602;BME280;68371;42.630;23.192;2023-03-05T04:41:33;91787.84;;;4.97;89.04
64602;BME280;68371;42.630;23.192;2023-03-05T04:44:00;91783.41;;;4.97;88.85
64602;BME280;68371;42.630;23.192;2023-03-05T04:46:29;91782.94;;;4.95;89.16
64602;BME280;68371;42.630;23.192;2023-03-05T04:48:56;91788.75;;;5.01;88.55
64602;BME280;68371;42.630;23.192;2023-03-05T04:51:23;91785.03;;;5.02;88.59
64602;BME280;68371;42.630;23.192;2023-03-05T04:53:50;91782.22;;;4.86;87.84
64602;BME280;68371;42.630;23.192;2023-03-05T04:56:18;91785.91;;;4.85;87.65
64602;BME280;68371;42.630;23.192;2023-03-05T04:58:45;91775.53;;;4.76;86.82
64602;BME280;68371;42.630;23.192;2023-03-05T05:01:11;91788.06;;;4.83;86.99
64602;BME280;68371;42.630;23.192;2023-03-05T05:03:38;91786.97;;;4.84;85.22
64602;BME280;68371;42.630;23.192;2023-03-05T05:06:06;91784.38;;;4.84;85.29
64602;BME280;68371;42.630;23.192;2023-03-05T05:08:33;91792.66;;;4.77;86.71
64602;BME280;68371;42.630;23.192;2023-03-05T05:11:03;91789.13;;;4.82;86.25
64602;BME280;68371;42.630;23.192;2023-03-05T05:13:32;91798.16;;;4.85;86.14
64602;BME280;68371;42.630;23.192;2023-03-05T05:16:01;91768.50;;;4.68;86.15
64602;BME280;68371;42.630;23.192;2023-03-05T05:18:28;91799.09;;;4.80;87.05
64602;BME280;68371;42.630;23.192;2023-03-05T05:20:54;91791.78;;;4.73;87.22
64602;BME280;68371;42.630;23.192;2023-03-05T05:23:21;91804.34;;;4.71;87.29
64602;BME280;68371;42.630;23.192;2023-03-05T05:25:55;91799.44;;;4.70;85.76
64602;BME280;68371;42.630;23.192;2023-03-05T05:28:22;91779.88;;;4.64;86.10
64602;BME280;68371;42.630;23.192;2023-03-05T05:30:50;91798.38;;;4.62;86.36
64602;BME280;68371;42.630;23.192;2023-03-05T05:33:17;91803.59;;;4.62;86.64
64602;BME280;68371;42.630;23.192;2023-03-05T05:35:43;91804.84;;;4.56;85.55
64602;BME280;68371;42.630;23.192;2023-03-05T05:38:10;91787.31;;;4.35;84.19
64602;BME280;68371;42.630;23.192;2023-03-05T05:40:37;91807.63;;;4.51;84.63
64602;BME280;68371;42.630;23.192;2023-03-05T05:43:05;91803.31;;;4.55;85.31
64602;BME280;68371;42.630;23.192;2023-03-05T05:45:32;91811.41;;;4.62;84.22
64602;BME280;68371;42.630;23.192;2023-03-05T05:48:00;91812.28;;;4.66;82.83
64602;BME280;68371;42.630;23.192;2023-03-05T05:50:27;91790.47;;;4.58;82.65
64602;BME280;68371;42.630;23.192;2023-03-05T05:52:54;91811.94;;;4.76;82.01
64602;BME280;68371;42.630;23.192;2023-03-05T05:55:21;91813.09;;;4.67;80.35
64602;BME280;68371;42.630;23.192;2023-03-05T05:57:48;91808.03;;;4.61;79.56
64602;BME280;68371;42.630;23.192;2023-03-05T06:00:15;91768.28;;;4.14;80.56
64602;BME280;68371;42.630;23.192;2023-03-05T08:45:44;91824.09;;;6.49;62.23
64602;BME280;68371;42.630;23.192;2023-03-05T08:48:14;91832.50;;;6.21;63.34
64602;BME280;68371;42.630;23.192;2023-03-05T08:50:41;91819.47;;;6.34;64.10
64602;BME280;68371;42.630;23.192;2023-03-05T08:53:08;91820.63;;;6.45;65.16
64602;BME280;68371;42.630;23.192;2023-03-05T08:55:35;91808.16;;;6.30;65.24
64602;BME280;68371;42.630;23.192;2023-03-05T08:58:02;91804.09;;;6.53;67.41
64602;BME280;68371;42.630;23.192;2023-03-05T09:00:29;91819.03;;;6.65;63.96
64602;BME280;68371;42.630;23.192;2023-03-05T09:02:57;91817.81;;;6.75;63.86
64602;BME280;68371;42.630;23.192;2023-03-05T09:05:24;91806.44;;;6.92;65.17
64602;BME280;68371;42.630;23.192;2023-03-05T09:07:50;91810.22;;;6.94;63.94
64602;BME280;68371;42.630;23.192;2023-03-05T09:10:17;91790.31;;;6.77;61.43
64602;BME280;68371;42.630;23.192;2023-03-05T09:12:44;91803.06;;;7.04;62.98
64602;BME280;68371;42.630;23.192;2023-03-05T09:15:14;91805.22;;;7.14;62.70
64602;BME280;68371;42.630;23.192;2023-03-05T09:17:41;91801.75;;;7.22;62.11
64602;BME280;68371;42.630;23.192;2023-03-05T09:20:12;91803.03;;;7.28;63.75
64602;BME280;68371;42.630;23.192;2023-03-05T09:22:40;91778.22;;;7.22;63.43
64602;BME280;68371;42.630;23.192;2023-03-05T09:25:07;91803.66;;;7.37;63.92
64602;BME280;68371;42.630;23.192;2023-03-05T09:27:37;91797.16;;;7.19;59.45
64602;BME280;68371;42.630;23.192;2023-03-05T09:30:05;91796.53;;;7.10;61.66
64602;BME280;68371;42.630;23.192;2023-03-05T09:32:32;91795.44;;;7.11;61.18
64602;BME280;68371;42.630;23.192;2023-03-05T09:34:58;91788.25;;;7.08;60.95
64602;BME280;68371;42.630;23.192;2023-03-05T09:37:26;91796.72;;;7.17;60.11
64602;BME280;68371;42.630;23.192;2023-03-05T09:39:53;91790.50;;;7.21;59.34
64602;BME280;68371;42.630;23.192;2023-03-05T09:42:28;91794.97;;;7.21;60.16
64602;BME280;68371;42.630;23.192;2023-03-05T09:45:07;91774.22;;;7.00;58.68
64602;BME280;68371;42.630;23.192;2023-03-05T09:47:52;91793.13;;;7.21;58.37
64602;BME280;68371;42.630;23.192;2023-03-05T09:50:35;91782.13;;;7.40;56.69
64602;BME280;68371;42.630;23.192;2023-03-05T09:53:11;91785.41;;;7.25;58.66
64602;BME280;68371;42.630;23.192;2023-03-05T09:55:46;91782.44;;;7.39;58.81
64602;BME280;68371;42.630;23.192;2023-03-05T09:58:18;91785.25;;;7.58;59.97
64602;BME280;68371;42.630;23.192;2023-03-05T10:00:49;91774.34;;;7.56;59.12
64602;BME280;68371;42.630;23.192;2023-03-05T10:03:21;91774.44;;;7.60;60.83
64602;BME280;68371;42.630;23.192;2023-03-05T10:06:00;91776.13;;;7.52;60.77
64602;BME280;68371;42.630;23.192;2023-03-05T10:08:41;91773.50;;;7.40;61.17
64602;BME280;68371;42.630;23.192;2023-03-05T10:11:22;91771.78;;;7.19;57.66
64602;BME280;68371;42.630;23.192;2023-03-05T10:13:53;91768.44;;;7.19;60.63
64602;BME280;68371;42.630;23.192;2023-03-05T10:16:34;91766.03;;;7.26;57.55
64602;BME280;68371;42.630;23.192;2023-03-05T10:19:08;91772.97;;;7.34;58.54
64602;BME280;68371;42.630;23.192;2023-03-05T10:21:47;91759.38;;;7.29;56.60
64602;BME280;68371;42.630;23.192;2023-03-05T10:24:23;91768.53;;;7.22;56.00
64602;BME280;68371;42.630;23.192;2023-03-05T10:26:58;91758.00;;;7.07;58.13
64602;BME280;68371;42.630;23.192;2023-03-05T10:29:43;91743.56;;;7.37;58.61
64602;BME280;68371;42.630;23.192;2023-03-05T10:32:22;91739.34;;;7.33;57.92
64602;BME280;68371;42.630;23.192;2023-03-05T10:35:10;91737.66;;;7.53;59.29
64602;BME280;68371;42.630;23.192;2023-03-05T10:37:53;91726.88;;;7.54;58.03
64602;BME280;68371;42.630;23.192;2023-03-05T10:40:29;91733.63;;;7.55;56.50
64602;BME280;68371;42.630;23.192;2023-03-05T10:43:06;91712.06;;;7.58;57.53
64602;BME280;68371;42.630;23.192;2023-03-05T10:45:37;91726.91;;;7.70;55.85
64602;BME280;68371;42.630;23.192;2023-03-05T10:48:08;91723.53;;;7.70;57.33
64602;BME280;68371;42.630;23.192;2023-03-05T10:50:40;91718.41;;;7.73;58.54
64602;BME280;68371;42.630;23.192;2023-03-05T10:53:16;91712.44;;;7.73;57.97
64602;BME280;68371;42.630;23.192;2023-03-05T10:55:47;91707.38;;;7.80;55.29
64602;BME280;68371;42.630;23.192;2023-03-05T10:58:16;91705.81;;;7.91;56.90
64602;BME280;68371;42.630;23.192;2023-03-05T11:00:58;91696.34;;;7.87;56.27
64602;BME280;68371;42.630;23.192;2023-03-05T11:03:25;91697.13;;;7.87;58.13
64602;BME280;68371;42.630;23.192;2023-03-05T11:05:58;91694.34;;;7.68;56.26
64602;BME280;68371;42.630;23.192;2023-03-05T11:08:33;91700.56;;;7.35;56.56
64602;BME280;68371;42.630;23.192;2023-03-05T11:11:14;91690.63;;;7.53;58.62
64602;BME280;68371;42.630;23.192;2023-03-05T11:13:56;91680.88;;;7.66;58.01
64602;BME280;68371;42.630;23.192;2023-03-05T11:16:25;91676.25;;;7.75;57.80
64602;BME280;68371;42.630;23.192;2023-03-05T11:19:17;91682.56;;;7.74;58.24
64602;BME280;68371;42.630;23.192;2023-03-05T11:21:46;91673.69;;;7.62;56.69
64602;BME280;68371;42.630;23.192;2023-03-05T11:24:29;91673.81;;;7.82;58.05
64602;BME280;68371;42.630;23.192;2023-03-05T11:26:59;91669.34;;;7.82;57.32
64602;BME280;68371;42.630;23.192;2023-03-05T11:29:27;91668.91;;;7.80;55.60
64602;BME280;68371;42.630;23.192;2023-03-05T11:31:54;91658.97;;;7.86;58.50
64602;BME280;68371;42.630;23.192;2023-03-05T11:34:24;91656.06;;;8.19;56.63
64602;BME280;68371;42.630;23.192;2023-03-05T11:37:01;91663.13;;;8.19;56.28
64602;BME280;68371;42.630;23.192;2023-03-05T11:39:31;91655.72;;;8.05;55.92
64602;BME280;68371;42.630;23.192;2023-03-05T11:42:04;91645.03;;;7.82;56.80
64602;BME280;68371;42.630;23.192;2023-03-05T11:44:34;91647.22;;;7.80;56.37
64602;BME280;68371;42.630;23.192;2023-03-05T11:47:17;91642.34;;;7.94;55.10
64602;BME280;68371;42.630;23.192;2023-03-05T11:49:51;91624.00;;;7.91;56.27
64602;BME280;68371;42.630;23.192;2023-03-05T11:52:23;91634.69;;;7.86;54.31
64602;BME280;68371;42.630;23.192;2023-03-05T11:54:57;91626.44;;;7.99;56.40
64602;BME280;68371;42.630;23.192;2023-03-05T11:57:29;91627.59;;;8.18;57.25
64602;BME280;68371;42.630;23.192;2023-03-05T11:59:59;91619.84;;;8.21;55.60
64602;BME280;68371;42.630;23.192;2023-03-05T12:02:32;91619.00;;;8.33;58.03
64602;BME280;68371;42.630;23.192;2023-03-05T12:04:59;91617.72;;;8.59;56.97
64602;BME280;68371;42.630;23.192;2023-03-05T12:07:33;91618.34;;;8.72;53.37
64602;BME280;68371;42.630;23.192;2023-03-05T12:10:01;91604.97;;;8.93;54.32
64602;BME280;68371;42.630;23.192;2023-03-05T12:12:36;91608.00;;;9.14;56.40
64602;BME280;68371;42.630;23.192;2023-03-05T12:15:24;91600.50;;;9.13;54.07
64602;BME280;68371;42.630;23.192;2023-03-05T12:18:00;91578.16;;;8.80;56.02
64602;BME280;68371;42.630;23.192;2023-03-05T12:20:36;91593.19;;;9.02;56.57
64602;BME280;68371;42.630;23.192;2023-03-05T12:23:03;91579.38;;;9.06;54.93
64602;BME280;68371;42.630;23.192;2023-03-05T12:25:32;91600.06;;;9.30;54.41
64602;BME280;68371;42.630;23.192;2023-03-05T12:28:01;91591.84;;;9.32;52.17
64602;BME280;68371;42.630;23.192;2023-03-05T12:30:53;91575.72;;;9.30;52.36
64602;BME280;68371;42.630;23.192;2023-03-05T12:33:32;91583.50;;;9.46;52.44
64602;BME280;68371;42.630;23.192;2023-03-05T12:36:35;91571.56;;;9.48;53.58
64602;BME280;68371;42.630;23.192;2023-03-05T12:48:40;91565.34;;;9.56;50.52
64602;BME280;68371;42.630;23.192;2023-03-05T12:51:13;91563.59;;;9.64;51.20
64602;BME280;68371;42.630;23.192;2023-03-05T12:53:39;91564.41;;;9.68;51.51
64602;BME280;68371;42.630;23.192;2023-03-05T12:56:16;91558.75;;;9.66;51.01
64602;BME280;68371;42.630;23.192;2023-03-05T12:58:47;91557.00;;;9.51;48.87
64602;BME280;68371;42.630;23.192;2023-03-05T13:01:39;91556.13;;;9.43;51.24
64602;BME280;68371;42.630;23.192;2023-03-05T13:04:15;91556.75;;;9.36;50.34
64602;BME280;68371;42.630;23.192;2023-03-05T13:06:44;91556.78;;;9.17;50.55
64602;BME280;68371;42.630;23.192;2023-03-05T13:09:16;91562.50;;;9.22;50.17
64602;BME280;68371;42.630;23.192;2023-03-05T13:11:47;91561.03;;;9.06;50.65
64602;BME280;68371;42.630;23.192;2023-03-05T13:14:41;91559.03;;;9.18;49.57
64602;BME280;68371;42.630;23.192;2023-03-05T13:17:32;91562.09;;;9.01;48.86
64602;BME280;68371;42.630;23.192;2023-03-05T13:22:44;91557.66;;;8.66;49.63
64602;BME280;68371;42.630;23.192;2023-03-05T13:25:15;91546.47;;;8.69;52.28
64602;BME280;68371;42.630;23.192;2023-03-05T13:27:44;91550.22;;;8.88;51.06
64602;BME280;68371;42.630;23.192;2023-03-05T13:30:29;91554.63;;;9.03;49.53
64602;BME280;68371;42.630;23.192;2023-03-05T13:33:00;91556.69;;;8.94;48.76
64602;BME280;68371;42.630;23.192;2023-03-05T13:35:30;91552.09;;;8.87;47.17
64602;BME280;68371;42.630;23.192;2023-03-05T13:37:58;91546.47;;;8.69;47.74
64602;BME280;68371;42.630;23.192;2023-03-05T13:40:28;91551.88;;;8.41;49.02
64602;BME280;68371;42.630;23.192;2023-03-05T13:43:07;91549.84;;;8.34;49.54
64602;BME280;68371;42.630;23.192;2023-03-05T13:45:35;91550.59;;;8.51;51.22
64602;BME280;68371;42.630;23.192;2023-03-05T13:48:03;91546.00;;;7.96;51.08
64602;BME280;68371;42.630;23.192;2023-03-05T13:50:34;91553.63;;;7.86;51.83
64602;BME280;68371;42.630;23.192;2023-03-05T13:53:13;91552.34;;;7.79;53.79
64602;BME280;68371;42.630;23.192;2023-03-05T13:55:40;91554.47;;;7.74;54.91
64602;BME280;68371;42.630;23.192;2023-03-05T13:58:44;91557.84;;;7.58;54.63
64602;BME280;68371;42.630;23.192;2023-03-05T14:01:17;91551.75;;;7.38;55.75
64602;BME280;68371;42.630;23.192;2023-03-05T14:03:48;91535.28;;;7.22;55.78
64602;BME280;68371;42.630;23.192;2023-03-05T14:06:18;91556.25;;;7.26;56.56
64602;BME280;68371;42.630;23.192;2023-03-05T14:08:50;91542.28;;;7.34;56.60
64602;BME280;68371;42.630;23.192;2023-03-05T14:11:20;91540.78;;;7.33;56.29
64602;BME280;68371;42.630;23.192;2023-03-05T14:13:47;91546.00;;;7.33;56.21
64602;BME280;68371;42.630;23.192;2023-03-05T14:16:25;91546.03;;;7.49;55.59
64602;BME280;68371;42.630;23.192;2023-03-05T14:18:58;91529.50;;;7.45;55.84
64602;BME280;68371;42.630;23.192;2023-03-05T14:21:41;91543.22;;;7.57;55.07
64602;BME280;68371;42.630;23.192;2023-03-05T14:24:11;91544.06;;;7.46;55.80
64602;BME280;68371;42.630;23.192;2023-03-05T14:26:46;91530.84;;;7.38;55.81
64602;BME280;68371;42.630;23.192;2023-03-05T14:29:16;91548.03;;;7.39;55.24
64602;BME280;68371;42.630;23.192;2023-03-05T14:31:47;91547.22;;;7.23;55.38
64602;BME280;68371;42.630;23.192;2023-03-05T14:34:20;91546.31;;;7.31;55.51
64602;BME280;68371;42.630;23.192;2023-03-05T14:36:51;91549.38;;;7.49;56.43
64602;BME280;68371;42.630;23.192;2023-03-05T14:44:57;91547.84;;;7.32;54.22
64602;BME280;68371;42.630;23.192;2023-03-05T14:47:25;91542.69;;;7.20;53.78
64602;BME280;68371;42.630;23.192;2023-03-05T14:49:52;91540.09;;;7.20;53.44
64602;BME280;68371;42.630;23.192;2023-03-05T14:52:24;91523.72;;;7.23;53.12
64602;BME280;68371;42.630;23.192;2023-03-05T14:54:51;91541.28;;;7.38;54.37
64602;BME280;68371;42.630;23.192;2023-03-05T14:57:22;91534.09;;;7.35;53.63
64602;BME280;68371;42.630;23.192;2023-03-05T14:59:50;91519.59;;;7.22;53.94
64602;BME280;68371;42.630;23.192;2023-03-05T15:02:21;91514.78;;;7.08;52.86
64602;BME280;68371;42.630;23.192;2023-03-05T15:04:50;91516.91;;;7.18;53.27
64602;BME280;68371;42.630;23.192;2023-03-05T15:07:18;91545.16;;;7.29;52.70
64602;BME280;68371;42.630;23.192;2023-03-05T15:09:47;91531.81;;;7.18;52.92
64602;BME280;68371;42.630;23.192;2023-03-05T15:12:15;91545.56;;;7.31;52.27
64602;BME280;68371;42.630;23.192;2023-03-05T15:14:42;91546.16;;;7.24;51.96
64602;BME280;68371;42.630;23.192;2023-03-05T15:17:13;91530.81;;;7.22;52.45
64602;BME280;68371;42.630;23.192;2023-03-05T15:19:42;91545.81;;;7.26;52.25
64602;BME280;68371;42.630;23.192;2023-03-05T15:22:10;91543.19;;;7.26;52.72
64602;BME280;68371;42.630;23.192;2023-03-05T15:24:37;91522.88;;;7.19;53.55
64602;BME280;68371;42.630;23.192;2023-03-05T15:27:05;91540.63;;;7.13;51.65
64602;BME280;68371;42.630;23.192;2023-03-05T15:29:33;91544.75;;;6.98;51.60
64602;BME280;68371;42.630;23.192;2023-03-05T15:32:01;91535.16;;;7.02;51.96
64602;BME280;68371;42.630;23.192;2023-03-05T15:34:30;91540.84;;;7.20;51.13
64602;BME280;68371;42.630;23.192;2023-03-05T15:36:58;91535.72;;;7.24;50.81
64602;BME280;68371;42.630;23.192;2023-03-05T15:39:24;91517.97;;;7.01;51.49
64602;BME280;68371;42.630;23.192;2023-03-05T15:41:51;91541.16;;;7.19;50.89
64602;BME280;68371;42.630;23.192;2023-03-05T15:44:22;91541.75;;;7.12;51.14
64602;BME280;68371;42.630;23.192;2023-03-05T15:46:51;91543.19;;;7.10;52.19
64602;BME280;68371;42.630;23.192;2023-03-05T15:49:18;91541.97;;;7.07;51.67
64602;BME280;68371;42.630;23.192;2023-03-05T15:51:45;91550.50;;;7.04;52.16
64602;BME280;68371;42.630;23.192;2023-03-05T15:54:12;91546.94;;;6.96;52.32
64602;BME280;68371;42.630;23.192;2023-03-05T15:56:39;91553.69;;;6.85;53.27
64602;BME280;68371;42.630;23.192;2023-03-05T15:59:06;91558.06;;;6.81;53.26
64602;BME280;68371;42.630;23.192;2023-03-05T16:01:36;91556.59;;;6.68;52.63
64602;BME280;68371;42.630;23.192;2023-03-05T16:04:03;91564.75;;;6.66;53.41
64602;BME280;68371;42.630;23.192;2023-03-05T16:06:31;91565.16;;;6.28;53.54
64602;BME280;68371;42.630;23.192;2023-03-05T16:09:02;91570.03;;;6.29;53.16
64602;BME280;68371;42.630;23.192;2023-03-05T16:11:30;91566.13;;;6.23;53.71
64602;BME280;68371;42.630;23.192;2023-03-05T16:13:58;91573.28;;;6.26;54.14
64602;BME280;68371;42.630;23.192;2023-03-05T16:16:27;91563.97;;;6.25;53.90